• Join FlightAware (Why Join?)
  • Login
  • US Flag 
12:46AM EDT


 

Airport Tracker/Info


-or-


 

Live Flight TrackerFlight Track Log ✈ SKW5372 ✈ 30-Apr-2012 ✈ KASE - KDEN

Flight Track Log - Related Links

Times and Time Zones

All times are in EDT time to prevent confusion due to time zone crossing. See the SKW5372 flight status page for this flight to view local times or setup timezone preferences in your user account.

Time Position Orientation Groundspeed Altitude Reporting Facility
EDT Latitude Longitude Course Direction KTS MPH feet Rate Location/Type
08:12PM 39.3371 -106.8737 246° West  Level FlightAware Approximate
08:13PM 39.3650 -106.7611 249° West  Level FlightAware Approximate
08:14PM 39.3028 -106.9722 41° Northeast 252 290 13,500  Level Denver Center
08:15PM 39.3508 -106.9189 91° East 293 337 16,700 2,160 Climbing Denver Center
08:16PM 39.3492 -106.7739 89° East 307 353 17,900 1,740 Climbing Denver Center
08:17PM 39.3517 -106.6264 89° East 359 413 20,200 1,980 Climbing Denver Center
08:18PM 39.3539 -106.4733 88° East 414 476 21,900 1,740 Climbing Denver Center
08:19PM 39.3581 -106.3094 87° East 442 509 23,700 1,500 Climbing Denver Center
08:20PM 39.3658 -106.1375 87° East 466 536 25,000 600 Climbing Denver Center
08:21PM 39.3736 -105.9603 87° East 486 559 25,000 -1,260 Level Denver Center
08:22PM 39.3811 -105.7856 86° East 486 559 22,500 -2,580 Descending Denver Center
08:23PM 39.3883 -105.6431 83° East 459 528 19,900 -1,800 Descending Denver Center
08:24PM 39.4019 -105.4925 75° East 433 498 18,900 -900 Descending Denver Center
08:25PM 39.4297 -105.3603 82° East 399 459 18,100 -1,080 Descending Denver Center
08:27PM 39.4667 -105.0333 82° East 366 421 15,400 -1,320 Descending Denver TRACON
08:28PM 39.4833 -104.8833 67° East 366 421 13,700 -1,200 Descending Denver TRACON
08:29PM 39.5167 -104.7833 30° Northeast 316 364 13,000 -1,080 Descending Denver TRACON
08:30PM 39.5833 -104.7333 38° Northeast 270 311 11,600 -1,500 Descending Denver TRACON
08:31PM 39.6333 -104.6833 14° North 238 274 10,100 -1,320 Descending Denver TRACON
08:32PM 39.6833 -104.6667 360° North 195 224 9,100 -1,080 Descending Denver TRACON
08:33PM 39.7333 -104.6667 360° North 180 207 8,100 -1,260 Descending Denver TRACON
08:34PM 39.7833 -104.6667 360° North 146 168 6,600 -1,200 Descending Denver TRACON
08:35PM 39.8167 -104.6667 360° North 141 162 5,700 -900 Descending Denver TRACON